createdAt,value
2023-05-10T05:03:24.208Z,25.00
2023-05-10T05:04:25.144Z,25.00
2023-05-10T05:05:24.189Z,25.00
2023-05-10T05:06:25.224Z,25.00
2023-05-10T05:07:25.256Z,25.00
2023-05-10T05:08:24.279Z,25.00
2023-05-10T05:09:25.280Z,0.00
2023-05-10T05:10:25.345Z,0.00
2023-05-10T05:11:24.407Z,0.00
2023-05-10T05:12:24.426Z,0.00
2023-05-10T05:13:24.568Z,0.00
2023-05-10T05:14:25.490Z,0.00
2023-05-10T05:15:24.504Z,0.00
2023-05-10T05:16:24.570Z,0.00
2023-05-10T05:17:25.593Z,0.00
2023-05-10T05:18:25.581Z,0.00
2023-05-10T05:19:24.567Z,0.00
2023-05-10T05:20:24.600Z,0.00
2023-05-10T05:21:24.607Z,0.00
2023-05-10T05:22:25.629Z,0.00
2023-05-10T05:23:25.737Z,0.00
2023-05-10T05:24:25.658Z,0.00
2023-05-10T05:25:25.661Z,3.21
2023-05-10T05:26:24.674Z,25.00
2023-05-10T05:27:24.699Z,25.00
2023-05-10T05:28:24.730Z,26.18
2023-05-10T05:29:25.757Z,25.00
2023-05-10T05:30:24.775Z,25.95
2023-05-10T05:31:25.857Z,28.16
2023-05-10T05:32:24.875Z,26.34
2023-05-10T05:33:25.843Z,25.91
2023-05-10T05:34:25.920Z,25.79
2023-05-10T05:35:24.906Z,25.00
2023-05-10T05:36:25.937Z,25.79
2023-05-10T05:37:24.973Z,27.09
2023-05-10T05:38:26.033Z,26.19
2023-05-10T05:39:26.115Z,25.28
2023-05-10T05:40:26.119Z,26.66
2023-05-10T05:41:25.178Z,27.23
2023-05-10T05:42:25.237Z,25.32
2023-05-10T05:43:25.306Z,25.96
2023-05-10T05:44:26.359Z,25.48
2023-05-10T05:45:26.406Z,25.46
2023-05-10T05:46:26.558Z,26.67
2023-05-10T05:47:26.546Z,32.01
2023-05-10T05:48:25.581Z,30.40
2023-05-10T05:49:25.661Z,27.78
2023-05-10T05:50:26.711Z,26.04
2023-05-10T05:51:25.777Z,26.51
2023-05-10T05:52:26.795Z,27.51
2023-05-10T05:53:26.853Z,27.61
2023-05-10T05:54:26.926Z,31.47
2023-05-10T05:55:27.011Z,28.75
2023-05-10T05:56:26.076Z,33.05
2023-05-10T05:57:26.107Z,31.56
2023-05-10T05:58:27.168Z,36.20
2023-05-10T05:59:26.251Z,37.28
2023-05-10T06:00:26.285Z,42.34
2023-05-10T06:01:26.363Z,38.11
2023-05-10T06:02:26.498Z,47.31
2023-05-10T06:03:26.652Z,42.85
2023-05-10T06:04:27.550Z,47.28
2023-05-10T06:05:27.526Z,40.48
2023-05-10T06:06:27.662Z,38.34
2023-05-10T06:07:27.649Z,33.24
2023-05-10T06:08:26.718Z,31.46
2023-05-10T06:09:27.776Z,35.52
2023-05-10T06:10:27.859Z,37.96
2023-05-10T06:11:27.898Z,25.56
2023-05-10T06:12:27.918Z,33.24
2023-05-10T06:13:28.102Z,29.07
2023-05-10T06:14:28.014Z,25.95
2023-05-10T06:15:28.058Z,25.98
2023-05-10T06:16:28.070Z,28.88
2023-05-10T06:17:27.078Z,28.67
2023-05-10T06:18:28.056Z,26.99
2023-05-10T06:19:28.073Z,27.90
2023-05-10T06:20:27.140Z,25.54
2023-05-10T06:21:27.109Z,26.66
2023-05-10T06:22:28.145Z,39.71
2023-05-10T06:23:28.111Z,40.89
2023-05-10T06:24:28.154Z,29.77
2023-05-10T06:25:27.130Z,31.14
2023-05-10T06:26:28.118Z,28.95
2023-05-10T06:27:27.237Z,27.14
2023-05-10T06:28:27.158Z,37.65
2023-05-10T06:29:28.206Z,26.86
2023-05-10T06:30:28.214Z,26.97
2023-05-10T06:31:28.271Z,26.58
2023-05-10T06:32:28.262Z,40.62
2023-05-10T06:33:27.296Z,44.72
2023-05-10T06:34:27.357Z,49.60
2023-05-10T06:35:27.393Z,50.46
2023-05-10T06:36:28.480Z,53.79
2023-05-10T06:37:28.513Z,58.43
2023-05-10T06:38:28.590Z,60.83
2023-05-10T06:39:28.597Z,60.99
2023-05-10T06:40:28.659Z,63.58
2023-05-10T06:41:27.675Z,61.94
2023-05-10T06:42:28.728Z,65.56
2023-05-10T06:43:28.745Z,65.76
2023-05-10T06:44:28.792Z,68.15
2023-05-10T06:45:28.853Z,71.69
2023-05-10T06:46:28.855Z,67.07
2023-05-10T06:47:27.900Z,69.35
2023-05-10T06:48:28.820Z,75.24
2023-05-10T06:49:28.816Z,79.04
2023-05-10T06:50:27.814Z,75.09
2023-05-10T06:51:27.833Z,78.63
2023-05-10T06:52:29.324Z,72.72
2023-05-10T06:53:28.883Z,76.21
2023-05-10T06:54:27.986Z,75.26
2023-05-10T06:55:27.962Z,73.31
2023-05-10T06:56:29.002Z,66.49
2023-05-10T06:57:32.018Z,71.04
2023-05-10T06:58:29.053Z,71.11
2023-05-10T06:59:28.091Z,68.07
2023-05-10T07:00:29.063Z,66.88
2023-05-10T07:01:28.026Z,67.37
2023-05-10T07:02:29.158Z,69.99
2023-05-10T07:03:27.988Z,66.06
2023-05-10T07:04:28.989Z,65.98
2023-05-10T07:05:29.248Z,59.74
2023-05-10T07:06:33.386Z,64.88
2023-05-10T07:07:28.987Z,65.16
2023-05-10T07:08:27.963Z,65.40
2023-05-10T07:09:27.973Z,63.05
2023-05-10T07:10:28.984Z,59.96
2023-05-10T07:11:28.948Z,66.70
2023-05-10T07:12:28.973Z,58.71
2023-05-10T07:13:27.956Z,60.93
2023-05-10T07:14:27.913Z,60.69
2023-05-10T07:15:28.931Z,60.20
2023-05-10T07:16:28.937Z,62.57
2023-05-10T07:17:28.013Z,59.17
2023-05-10T07:18:27.931Z,58.79
2023-05-10T07:19:27.888Z,56.37
2023-05-10T07:20:27.886Z,57.38
2023-05-10T07:21:28.898Z,56.88
2023-05-10T07:22:27.871Z,55.82
2023-05-10T07:23:27.858Z,54.35
2023-05-10T07:24:28.862Z,54.26
2023-05-10T07:25:28.828Z,55.60
2023-05-10T07:26:28.851Z,53.33
2023-05-10T07:27:28.812Z,53.13
2023-05-10T07:28:28.848Z,52.41
2023-05-10T07:29:28.833Z,48.45
2023-05-10T07:30:28.815Z,51.24
2023-05-10T07:31:27.819Z,49.46
2023-05-10T07:32:27.940Z,50.27
2023-05-10T07:33:28.933Z,51.89
2023-05-10T07:34:28.963Z,46.91
2023-05-10T07:35:29.052Z,45.57
2023-05-10T07:36:28.109Z,43.88
2023-05-10T07:37:28.171Z,40.83
2023-05-10T07:38:29.214Z,46.88
2023-05-10T07:39:28.507Z,44.84
2023-05-10T07:40:29.348Z,47.39
2023-05-10T07:41:29.415Z,44.04
2023-05-10T07:42:29.662Z,43.75
2023-05-10T07:43:29.521Z,40.70
2023-05-10T07:44:28.618Z,45.05
2023-05-10T07:45:28.680Z,44.31
2023-05-10T07:46:28.826Z,47.01
2023-05-10T07:47:29.870Z,44.31
2023-05-10T07:48:28.827Z,38.89
2023-05-10T07:49:28.865Z,42.77
2023-05-10T07:50:28.946Z,50.13
2023-05-10T07:51:28.962Z,45.10
2023-05-10T07:52:29.342Z,44.15
2023-05-10T07:53:29.091Z,54.55
2023-05-10T07:54:29.160Z,52.89
2023-05-10T07:55:29.277Z,52.17
2023-05-10T07:56:30.257Z,54.33
2023-05-10T07:57:30.347Z,55.00
2023-05-10T07:58:29.615Z,67.99
2023-05-10T07:59:29.456Z,68.15
2023-05-10T08:00:29.484Z,65.82
2023-05-10T08:01:29.484Z,69.55
2023-05-10T08:02:30.622Z,80.60
2023-05-10T08:03:30.641Z,81.59
2023-05-10T08:04:30.601Z,82.16
2023-05-10T08:05:30.615Z,65.84
2023-05-10T08:06:29.687Z,36.51
2023-05-10T08:07:30.746Z,34.37
2023-05-10T08:08:29.801Z,30.54
2023-05-10T08:09:30.852Z,36.32
2023-05-10T08:10:30.920Z,30.14
2023-05-10T08:11:29.950Z,47.50
2023-05-10T08:12:30.035Z,51.47
2023-05-10T08:13:31.100Z,38.90
2023-05-10T08:14:31.148Z,25.00
2023-05-10T08:15:30.195Z,29.31
2023-05-10T08:16:31.211Z,29.14
2023-05-10T08:17:31.434Z,36.23
2023-05-10T08:18:30.228Z,37.04
2023-05-10T08:19:30.243Z,47.88
2023-05-10T08:20:31.307Z,71.31
2023-05-10T08:21:30.348Z,78.96
2023-05-10T08:22:31.444Z,80.70
2023-05-10T08:23:30.473Z,85.56
2023-05-10T08:24:31.513Z,89.29
2023-05-10T08:25:30.534Z,90.53
2023-05-10T08:26:31.557Z,95.82
2023-05-10T08:27:31.586Z,100.51
2023-05-10T08:28:31.605Z,99.90
2023-05-10T08:29:42.359Z,106.79
2023-05-10T08:30:31.648Z,106.93
2023-05-10T08:31:31.693Z,107.58
2023-05-10T08:32:31.700Z,108.12
2023-05-10T08:33:31.599Z,111.32
2023-05-10T08:34:31.593Z,112.17
2023-05-10T08:35:30.582Z,115.56
2023-05-10T08:36:30.581Z,121.52
2023-05-10T08:37:30.571Z,116.54
2023-05-10T08:38:31.554Z,117.94
2023-05-10T08:39:30.996Z,123.94
2023-05-10T08:40:31.548Z,123.37
2023-05-10T08:41:31.538Z,127.56
2023-05-10T08:42:30.857Z,111.14
2023-05-10T08:43:31.540Z,105.36
2023-05-10T08:44:31.556Z,102.55
2023-05-10T08:45:30.516Z,99.35
2023-05-10T08:46:30.601Z,104.00
2023-05-10T08:47:31.557Z,109.54
2023-05-10T08:48:30.482Z,112.65
2023-05-10T08:49:31.485Z,108.79
2023-05-10T08:50:31.529Z,106.71
2023-05-10T08:51:31.463Z,114.87
2023-05-10T08:52:31.478Z,114.96
2023-05-10T08:53:30.448Z,117.49
2023-05-10T08:54:31.450Z,117.86
2023-05-10T08:55:31.438Z,115.93
2023-05-10T08:56:31.456Z,118.29
2023-05-10T08:57:31.873Z,123.17
2023-05-10T08:58:31.434Z,121.60
2023-05-10T08:59:31.455Z,120.84
2023-05-10T09:00:31.457Z,123.81
2023-05-10T09:01:31.557Z,125.50
2023-05-10T09:02:31.487Z,124.24
2023-05-10T09:03:31.404Z,126.59
2023-05-10T09:04:30.481Z,126.97
2023-05-10T09:05:31.461Z,130.66
2023-05-10T09:06:31.404Z,130.49
2023-05-10T09:07:31.353Z,132.25
2023-05-10T09:08:30.351Z,131.80
2023-05-10T09:09:31.337Z,136.67
2023-05-10T09:10:31.380Z,138.38
2023-05-10T09:11:30.336Z,136.78
2023-05-10T09:12:31.325Z,141.30
2023-05-10T09:13:31.306Z,139.80
2023-05-10T09:14:31.293Z,141.59
2023-05-10T09:15:30.365Z,140.20
2023-05-10T09:16:31.420Z,140.94
2023-05-10T09:17:31.490Z,143.23
2023-05-10T09:18:31.506Z,142.38
2023-05-10T09:19:31.512Z,143.97
2023-05-10T09:20:31.521Z,144.89
2023-05-10T09:21:31.563Z,139.55
2023-05-10T09:22:31.598Z,141.92
2023-05-10T09:23:31.627Z,142.31
2023-05-10T09:24:31.655Z,138.37
2023-05-10T09:25:30.692Z,144.12
2023-05-10T09:26:31.744Z,144.57
2023-05-10T09:27:31.766Z,145.32
2023-05-10T09:28:31.792Z,143.12
2023-05-10T09:29:30.811Z,144.10
2023-05-10T09:30:31.911Z,142.55
2023-05-10T09:31:30.906Z,135.24
2023-05-10T09:32:31.951Z,133.12
2023-05-10T09:33:31.965Z,134.47
2023-05-10T09:34:32.036Z,139.58
2023-05-10T09:35:31.015Z,142.68
2023-05-10T09:36:32.047Z,136.41
2023-05-10T09:37:32.109Z,137.62
2023-05-10T09:38:32.096Z,139.18
2023-05-10T09:39:31.136Z,135.26
2023-05-10T09:40:31.152Z,135.57
2023-05-10T09:41:31.163Z,137.68
2023-05-10T09:42:32.207Z,133.83
2023-05-10T09:43:32.213Z,130.64
2023-05-10T09:44:32.240Z,127.11
2023-05-10T09:45:31.293Z,133.17
2023-05-10T09:46:31.355Z,131.13
2023-05-10T09:47:32.473Z,131.16
2023-05-10T09:48:32.317Z,124.26
2023-05-10T09:49:31.357Z,124.91
2023-05-10T09:50:32.391Z,124.30
2023-05-10T09:51:32.382Z,120.90
2023-05-10T09:52:31.415Z,119.28
2023-05-10T09:53:31.444Z,123.29
2023-05-10T09:54:31.478Z,122.86
2023-05-10T09:55:32.506Z,125.59
2023-05-10T09:56:32.541Z,125.23
2023-05-10T09:57:33.850Z,126.03
2023-05-10T09:58:31.541Z,125.06
2023-05-10T09:59:31.545Z,121.61
2023-05-10T10:00:31.513Z,119.45
2023-05-10T10:01:32.576Z,118.21
2023-05-10T10:02:31.651Z,121.88
2023-05-10T10:03:31.508Z,122.02
2023-05-10T10:04:32.491Z,119.67
2023-05-10T10:05:32.478Z,122.71
2023-05-10T10:06:31.490Z,126.07
2023-05-10T10:07:32.475Z,128.22
2023-05-10T10:08:32.472Z,120.02
2023-05-10T10:09:32.465Z,124.49
2023-05-10T10:10:31.442Z,124.62
2023-05-10T10:11:32.444Z,127.53
2023-05-10T10:12:31.430Z,122.50
2023-05-10T10:13:32.450Z,127.20
2023-05-10T10:14:32.426Z,125.80
2023-05-10T10:15:32.410Z,126.23
2023-05-10T10:16:32.489Z,128.94
2023-05-10T10:17:31.409Z,128.78
2023-05-10T10:18:31.422Z,126.84
2023-05-10T10:19:32.384Z,126.14
2023-05-10T10:20:32.386Z,125.72
2023-05-10T10:21:31.401Z,129.02
2023-05-10T10:22:31.517Z,130.60
2023-05-10T10:23:31.360Z,126.82
2023-05-10T10:24:32.346Z,128.20
2023-05-10T10:25:31.351Z,130.29
2023-05-10T10:26:31.377Z,129.78
2023-05-10T10:27:32.328Z,132.22
2023-05-10T10:28:32.347Z,130.69
2023-05-10T10:29:32.304Z,129.83
2023-05-10T10:30:32.297Z,131.11
2023-05-10T10:31:31.367Z,130.02
2023-05-10T10:32:32.323Z,129.86
2023-05-10T10:33:31.318Z,131.51
2023-05-10T10:34:31.282Z,130.12
2023-05-10T10:35:32.281Z,130.89
2023-05-10T10:36:31.263Z,133.06
2023-05-10T10:37:32.260Z,129.09
2023-05-10T10:38:32.287Z,130.14
2023-05-10T10:39:31.261Z,129.31
2023-05-10T10:40:34.608Z,129.16
2023-05-10T10:41:32.227Z,129.43
2023-05-10T10:42:32.226Z,129.83
2023-05-10T10:43:32.223Z,129.73
2023-05-10T10:44:32.214Z,129.97
2023-05-10T10:45:32.221Z,129.91
2023-05-10T10:46:32.192Z,133.06
2023-05-10T10:47:32.250Z,129.59
2023-05-10T10:48:31.194Z,128.72
2023-05-10T10:49:31.200Z,132.86
2023-05-10T10:50:32.178Z,134.24
2023-05-10T10:51:31.242Z,132.50
2023-05-10T10:52:32.249Z,132.53
2023-05-10T10:53:31.191Z,131.79
2023-05-10T10:54:32.210Z,131.08
2023-05-10T10:55:32.122Z,133.57
2023-05-10T10:56:32.128Z,132.02
2023-05-10T10:57:31.124Z,132.73
2023-05-10T10:58:32.188Z,132.00
2023-05-10T10:59:32.169Z,133.43
2023-05-10T11:00:32.337Z,134.97
2023-05-10T11:01:31.167Z,134.63
2023-05-10T11:02:32.142Z,137.31
2023-05-10T11:03:32.100Z,138.05
2023-05-10T11:04:32.127Z,137.34
2023-05-10T11:05:31.063Z,138.95
2023-05-10T11:06:31.064Z,139.16
2023-05-10T11:07:32.049Z,136.43
2023-05-10T11:08:32.089Z,139.83
2023-05-10T11:09:32.076Z,137.31
2023-05-10T11:10:31.066Z,139.12
2023-05-10T11:11:32.015Z,140.05
2023-05-10T11:12:32.014Z,140.46
2023-05-10T11:13:31.999Z,138.97
2023-05-10T11:14:31.015Z,138.28
2023-05-10T11:15:32.024Z,137.22
2023-05-10T11:16:31.029Z,136.00
2023-05-10T11:17:31.081Z,136.15
2023-05-10T11:18:31.034Z,136.08
2023-05-10T11:19:30.985Z,134.69
2023-05-10T11:20:31.951Z,134.73
2023-05-10T11:21:30.958Z,131.98
2023-05-10T11:22:30.956Z,131.62
2023-05-10T11:23:31.944Z,136.12
2023-05-10T11:24:31.942Z,136.11
2023-05-10T11:25:30.909Z,137.69
2023-05-10T11:26:30.967Z,134.21
2023-05-10T11:27:31.904Z,138.09
2023-05-10T11:28:30.908Z,135.84
2023-05-10T11:29:31.889Z,137.11
2023-05-10T11:30:30.921Z,133.67
2023-05-10T11:31:31.898Z,131.63
2023-05-10T11:32:31.985Z,130.71
2023-05-10T11:33:31.869Z,129.04
2023-05-10T11:34:30.856Z,131.53
2023-05-10T11:35:30.847Z,134.90
2023-05-10T11:36:30.836Z,129.55
2023-05-10T11:37:30.827Z,132.86
2023-05-10T11:38:30.839Z,131.46
2023-05-10T11:39:31.929Z,130.28
2023-05-10T11:40:31.813Z,130.25
2023-05-10T11:41:31.844Z,131.28
2023-05-10T11:42:31.834Z,130.63
2023-05-10T11:43:31.801Z,128.71
2023-05-10T11:44:31.794Z,128.67
2023-05-10T11:45:31.775Z,128.28
2023-05-10T11:46:31.799Z,130.95
2023-05-10T11:47:30.788Z,127.78
2023-05-10T11:48:30.776Z,131.04
2023-05-10T11:49:31.793Z,127.60
2023-05-10T11:50:31.748Z,127.03
2023-05-10T11:51:31.748Z,129.92
2023-05-10T11:52:30.720Z,121.02
2023-05-10T11:53:30.743Z,120.63
2023-05-10T11:54:30.735Z,123.76
2023-05-10T11:55:30.715Z,119.14
2023-05-10T11:56:30.733Z,115.73
2023-05-10T11:57:31.706Z,118.30
2023-05-10T11:58:31.742Z,117.71
2023-05-10T11:59:30.701Z,117.07
2023-05-10T12:00:31.695Z,120.60
2023-05-10T12:01:30.689Z,119.79
2023-05-10T12:02:30.744Z,118.59
2023-05-10T12:03:30.746Z,122.40
2023-05-10T12:04:31.703Z,120.61
2023-05-10T12:05:31.640Z,122.18
2023-05-10T12:06:30.661Z,122.64
2023-05-10T12:07:30.635Z,125.85
2023-05-10T12:08:31.623Z,151.24
2023-05-10T12:09:43.394Z,160.18
2023-05-10T12:10:31.609Z,160.78
2023-05-10T12:11:30.609Z,165.02
2023-05-10T12:12:30.593Z,169.69
2023-05-10T12:13:30.583Z,180.66
2023-05-10T12:14:31.624Z,200.40
2023-05-10T12:15:30.581Z,215.69
2023-05-10T12:16:31.646Z,217.11
2023-05-10T12:17:31.581Z,223.40
2023-05-10T12:18:31.581Z,231.42
2023-05-10T12:19:31.555Z,228.01
2023-05-10T12:20:30.549Z,228.30
2023-05-10T12:21:31.554Z,227.59
2023-05-10T12:22:30.528Z,232.89
2023-05-10T12:23:31.556Z,230.31
2023-05-10T12:24:30.545Z,236.38
2023-05-10T12:25:31.539Z,231.73
2023-05-10T12:26:30.518Z,237.71
2023-05-10T12:27:30.506Z,238.68
2023-05-10T12:28:31.501Z,240.93
2023-05-10T12:29:31.513Z,240.61
2023-05-10T12:30:31.580Z,240.44
2023-05-10T12:31:31.513Z,242.24
2023-05-10T12:32:30.466Z,240.97
2023-05-10T12:33:31.456Z,240.97
2023-05-10T12:34:30.450Z,242.71
2023-05-10T12:35:31.450Z,246.67
2023-05-10T12:36:31.427Z,242.21
2023-05-10T12:37:30.433Z,245.75
2023-05-10T12:38:31.430Z,247.84
2023-05-10T12:39:31.419Z,245.08
2023-05-10T12:40:30.404Z,245.86
2023-05-10T12:41:31.395Z,243.10
2023-05-10T12:42:31.382Z,247.35
2023-05-10T12:43:30.382Z,244.35
2023-05-10T12:44:30.384Z,247.59
2023-05-10T12:45:31.379Z,246.03
2023-05-10T12:46:31.599Z,247.59
2023-05-10T12:47:31.380Z,247.98
2023-05-10T12:48:31.339Z,247.43
2023-05-10T12:49:30.362Z,245.67
2023-05-10T12:50:31.337Z,246.36
2023-05-10T12:51:31.325Z,247.76
2023-05-10T12:52:31.311Z,249.28
2023-05-10T12:53:31.305Z,245.55
2023-05-10T12:54:31.304Z,249.83
2023-05-10T12:55:31.287Z,250.00
2023-05-10T12:56:31.283Z,247.47
2023-05-10T12:57:31.288Z,243.20
2023-05-10T12:58:36.072Z,247.63
2023-05-10T12:59:31.263Z,248.07
2023-05-10T13:00:31.253Z,248.65
2023-05-10T13:01:30.307Z,249.24
2023-05-10T13:02:30.323Z,247.86
2023-05-10T13:03:31.225Z,250.30
2023-05-10T13:04:30.225Z,248.49
2023-05-10T13:05:31.237Z,245.53
2023-05-10T13:06:31.214Z,245.80
2023-05-10T13:07:31.214Z,245.59
2023-05-10T13:08:31.200Z,246.39
2023-05-10T13:09:31.197Z,247.43
2023-05-10T13:10:30.195Z,249.78
2023-05-10T13:11:31.169Z,245.96
2023-05-10T13:12:31.178Z,246.88
2023-05-10T13:13:31.173Z,243.43
2023-05-10T13:14:30.186Z,245.20
2023-05-10T13:15:31.147Z,248.91
2023-05-10T13:16:30.228Z,247.76
2023-05-10T13:17:31.518Z,245.01
2023-05-10T13:18:30.201Z,243.79
2023-05-10T13:19:30.125Z,243.94
2023-05-10T13:20:31.155Z,245.30
2023-05-10T13:21:30.112Z,243.07
2023-05-10T13:22:39.590Z,240.53
2023-05-10T13:23:31.090Z,240.84
2023-05-10T13:24:31.080Z,241.32
2023-05-10T13:25:30.103Z,240.81
2023-05-10T13:26:30.147Z,240.89
2023-05-10T13:27:31.067Z,242.69
2023-05-10T13:28:31.060Z,242.14
2023-05-10T13:29:31.038Z,239.06
2023-05-10T13:30:31.038Z,239.38
2023-05-10T13:31:30.061Z,237.74
2023-05-10T13:32:30.034Z,239.33
2023-05-10T13:33:30.007Z,237.10
2023-05-10T13:34:31.039Z,237.61
2023-05-10T13:35:30.006Z,240.79
2023-05-10T13:36:30.986Z,239.90
2023-05-10T13:37:30.984Z,237.53
2023-05-10T13:38:30.974Z,235.24
2023-05-10T13:39:29.970Z,237.33
2023-05-10T13:40:30.959Z,239.13
2023-05-10T13:41:30.960Z,238.53
2023-05-10T13:42:30.946Z,240.77
2023-05-10T13:43:29.951Z,237.94
2023-05-10T13:44:29.936Z,241.79
2023-05-10T13:45:30.925Z,237.59
2023-05-10T13:46:30.931Z,237.75
2023-05-10T13:47:30.913Z,239.25
2023-05-10T13:48:30.930Z,236.23
2023-05-10T13:49:30.917Z,237.66
2023-05-10T13:50:30.913Z,238.06
2023-05-10T13:51:30.888Z,236.15
2023-05-10T13:52:29.874Z,239.18
2023-05-10T13:53:30.875Z,236.98
2023-05-10T13:54:30.872Z,240.61
2023-05-10T13:55:29.848Z,235.87
2023-05-10T13:56:29.859Z,234.95
2023-05-10T13:57:30.872Z,239.79
2023-05-10T13:58:29.870Z,237.11
2023-05-10T13:59:30.904Z,237.83
2023-05-10T14:00:29.906Z,240.08
2023-05-10T14:01:29.955Z,236.35
2023-05-10T14:02:30.990Z,235.98
2023-05-10T14:03:30.998Z,238.78
2023-05-10T14:04:29.938Z,237.35
2023-05-10T14:05:30.035Z,234.40
2023-05-10T14:06:31.019Z,234.96
2023-05-10T14:07:29.992Z,232.95
2023-05-10T14:08:30.987Z,233.87
2023-05-10T14:09:29.993Z,235.54
2023-05-10T14:10:31.031Z,233.12
2023-05-10T14:11:31.006Z,233.22
2023-05-10T14:12:30.030Z,231.91
2023-05-10T14:13:31.035Z,233.56
2023-05-10T14:14:31.043Z,235.48
2023-05-10T14:15:31.045Z,236.46
2023-05-10T14:16:31.071Z,232.77
2023-05-10T14:17:31.100Z,232.52
2023-05-10T14:18:30.141Z,232.95
2023-05-10T14:19:31.097Z,235.52
2023-05-10T14:20:31.168Z,235.31
2023-05-10T14:21:30.128Z,235.81
2023-05-10T14:22:30.207Z,233.83
2023-05-10T14:23:31.172Z,236.73
2023-05-10T14:24:31.192Z,234.42
2023-05-10T14:25:30.218Z,238.15
2023-05-10T14:26:31.229Z,237.68
2023-05-10T14:27:31.261Z,233.00
2023-05-10T14:28:31.307Z,238.07
2023-05-10T14:29:30.296Z,235.99
2023-05-10T14:30:30.316Z,234.55
2023-05-10T14:31:31.560Z,236.09
2023-05-10T14:32:31.402Z,234.11
2023-05-10T14:33:31.366Z,237.90
2023-05-10T14:34:31.391Z,231.57
2023-05-10T14:35:30.409Z,235.40
2023-05-10T14:36:31.428Z,234.25
2023-05-10T14:37:30.436Z,234.63
2023-05-10T14:38:31.484Z,232.90
2023-05-10T14:39:30.482Z,233.67
2023-05-10T14:40:31.501Z,233.76
2023-05-10T14:41:30.503Z,232.79
2023-05-10T14:42:30.520Z,231.15
2023-05-10T14:43:30.535Z,235.04
2023-05-10T14:44:31.560Z,230.06
2023-05-10T14:45:30.686Z,229.04
2023-05-10T14:46:31.629Z,229.41
2023-05-10T14:47:31.662Z,231.82
2023-05-10T14:48:31.635Z,231.12
2023-05-10T14:49:30.659Z,233.94
2023-05-10T14:50:36.830Z,229.90
2023-05-10T14:51:31.661Z,230.37
2023-05-10T14:52:32.185Z,231.04
2023-05-10T14:53:31.659Z,230.19
2023-05-10T14:54:30.677Z,231.40
2023-05-10T14:55:31.629Z,230.33
2023-05-10T14:56:30.626Z,232.00
2023-05-10T14:57:31.625Z,231.31
2023-05-10T14:58:31.622Z,229.42
2023-05-10T14:59:31.850Z,229.61
2023-05-10T15:00:31.871Z,228.68
2023-05-10T15:01:30.898Z,227.96
2023-05-10T15:02:31.883Z,228.90
2023-05-10T15:03:31.930Z,230.04
2023-05-10T15:04:31.840Z,226.87
2023-05-10T15:05:30.891Z,226.59
2023-05-10T15:06:30.869Z,228.33
2023-05-10T15:07:31.899Z,228.82
2023-05-10T15:08:31.911Z,226.45
2023-05-10T15:09:30.930Z,226.09
2023-05-10T15:10:33.799Z,227.03
2023-05-10T15:11:30.933Z,231.73
2023-05-10T15:12:31.923Z,227.35
2023-05-10T15:13:31.908Z,224.14
2023-05-10T15:14:30.913Z,225.29
2023-05-10T15:15:32.061Z,223.19
2023-05-10T15:16:32.293Z,224.25
2023-05-10T15:17:31.920Z,224.44
2023-05-10T15:18:31.902Z,225.17
2023-05-10T15:19:31.875Z,224.88
2023-05-10T15:20:30.877Z,226.52
2023-05-10T15:21:31.860Z,223.46
2023-05-10T15:22:32.503Z,223.51
2023-05-10T15:23:30.861Z,223.78
2023-05-10T15:24:30.837Z,223.69
2023-05-10T15:25:30.841Z,221.64
2023-05-10T15:26:30.840Z,224.84
2023-05-10T15:27:31.832Z,224.91
2023-05-10T15:28:32.378Z,223.50
2023-05-10T15:29:31.809Z,225.74
2023-05-10T16:41:17.092Z,25.00
2023-05-10T16:42:17.072Z,25.00
